Time;durP1;ratioP1;P1;durP2;ratioP2;P2;SDS_P1;SDS_P2;PMS_P1;PMS_P2;Temp;Humidity;BMP_temperature;BMP_pressure;BME280_temperature;BME280_humidity;BME280_pressure;Samples;Min_cycle;Max_cycle;Signal;HPM_P1;HPM_P2
2022/01/13 00:01:26;;;;;;;60.67;16.17;;;;;;;2.62;91.58;104123.78;4956475;28;20023;-72
2022/01/13 00:03:52;;;;;;;51.92;15.85;;;;;;;2.65;91.35;104126.66;4957731;29;20023;-72
2022/01/13 00:06:17;;;;;;;45.55;14.77;;;;;;;2.71;90.80;104132.50;4957710;29;20062;-72
2022/01/13 00:08:42;;;;;;;38.08;14.68;;;;;;;2.73;91.25;104129.22;4957709;29;20392;-72
2022/01/13 00:11:08;;;;;;;64.85;14.52;;;;;;;2.74;90.60;104118.03;4957671;29;20090;-72
2022/01/13 00:13:46;;;;;;;50.00;15.07;;;;;;;2.77;90.87;104127.84;4957777;29;20027;-72
2022/01/13 00:16:39;;;;;;;45.92;14.10;;;;;;;2.79;90.65;104122.78;4957457;29;20031;-72
2022/01/13 00:19:19;;;;;;;46.72;14.18;;;;;;;2.85;90.13;104137.31;4957696;29;20031;-72
2022/01/13 00:22:02;;;;;;;42.63;13.65;;;;;;;2.89;89.98;104141.16;4957671;29;20019;-72
2022/01/13 00:24:27;;;;;;;50.00;13.05;;;;;;;2.88;89.75;104142.84;4957547;28;20358;-72
2022/01/13 00:26:54;;;;;;;32.85;13.32;;;;;;;2.86;89.86;104139.16;4957532;29;20098;-72
2022/01/13 00:29:26;;;;;;;39.75;14.60;;;;;;;2.88;90.12;104142.84;4957508;29;20032;-72
2022/01/13 00:31:52;;;;;;;43.72;13.88;;;;;;;2.92;89.96;104137.16;4940214;29;20034;-72
2022/01/13 00:34:17;;;;;;;56.38;14.63;;;;;;;2.96;89.81;104135.75;4957469;29;20027;-72
2022/01/13 00:36:43;;;;;;;34.13;13.77;;;;;;;2.96;89.75;104135.75;4957264;29;20085;-72
2022/01/13 00:39:11;;;;;;;36.60;13.27;;;;;;;2.97;89.29;104140.19;4956990;28;20031;-72
2022/01/13 00:41:36;;;;;;;35.15;13.55;;;;;;;2.97;89.27;104134.97;4957224;29;20031;-72
2022/01/13 00:44:04;;;;;;;46.03;13.27;;;;;;;2.97;89.84;104130.66;4957405;29;20030;-72
2022/01/13 00:46:40;;;;;;;37.78;13.68;;;;;;;3.01;89.35;104122.34;4957373;29;20098;-72
2022/01/13 00:49:06;;;;;;;34.33;12.85;;;;;;;3.06;89.02;104121.84;4957263;29;20058;-72
2022/01/13 00:51:35;;;;;;;44.75;14.05;;;;;;;3.04;89.03;104112.94;4957035;29;20485;-72
2022/01/13 00:54:04;;;;;;;37.17;14.30;;;;;;;2.98;88.46;104113.28;4956825;28;20038;-72
2022/01/13 00:56:32;;;;;;;65.78;14.52;;;;;;;2.87;88.55;104116.56;4956963;29;20031;-72
2022/01/13 00:58:58;;;;;;;46.03;13.43;;;;;;;2.84;89.26;104121.53;4957088;29;20035;-72
2022/01/13 01:01:24;;;;;;;40.05;13.35;;;;;;;2.83;89.77;104111.84;4956937;29;20031;-72
2022/01/13 01:03:49;;;;;;;29.05;13.48;;;;;;;2.85;89.55;104111.22;4956859;29;20075;-72
2022/01/13 01:06:15;;;;;;;55.40;14.45;;;;;;;2.79;89.40;104097.59;4956675;29;20082;-72
2022/01/13 01:08:40;;;;;;;41.55;14.30;;;;;;;2.78;89.51;104106.16;4956554;29;20451;-72
2022/01/13 01:11:06;;;;;;;35.85;13.40;;;;;;;2.79;89.69;104108.03;4956687;29;20389;-72
2022/01/13 01:13:34;;;;;;;61.67;13.77;;;;;;;2.80;89.31;104111.56;4956023;28;20507;-72
2022/01/13 01:16:04;;;;;;;88.00;16.02;;;;;;;2.72;89.48;104111.75;4956693;29;20059;-72
2022/01/13 01:18:49;;;;;;;39.88;13.05;;;;;;;2.65;89.60;104109.31;4956527;29;20110;-72
2022/01/13 01:29:24;;;;;;;51.80;14.27;;;;;;;2.61;90.34;104117.66;4956687;29;20142;-72
2022/01/13 01:31:53;;;;;;;37.92;13.45;;;;;;;2.67;90.20;104117.31;4956185;29;20023;-72
2022/01/13 01:37:01;;;;;;;28.00;12.33;;;;;;;2.78;89.98;104115.69;4956224;29;20031;-72
2022/01/13 01:39:27;;;;;;;36.35;12.82;;;;;;;2.79;89.80;104117.56;4955887;28;20027;-72
2022/01/13 01:42:02;;;;;;;42.60;12.68;;;;;;;2.79;89.94;104107.13;4956209;29;20054;-72
2022/01/13 01:44:33;;;;;;;34.95;12.77;;;;;;;2.76;89.56;104108.66;4956301;29;20114;-72
2022/01/13 01:47:00;;;;;;;47.38;12.77;;;;;;;2.69;89.27;104107.91;4956023;29;20030;-72
2022/01/13 01:49:27;;;;;;;37.33;12.07;;;;;;;2.70;89.86;104102.84;4955961;29;20035;-72
2022/01/13 01:51:58;;;;;;;41.67;11.73;;;;;;;2.72;89.60;104113.44;4955947;29;20023;-72
2022/01/13 01:54:25;;;;;;;67.97;13.20;;;;;;;2.63;89.31;104113.47;4955871;28;20035;-72
2022/01/13 01:56:51;;;;;;;38.08;11.90;;;;;;;2.63;89.71;104099.50;4955769;29;20027;-72
2022/01/13 01:59:20;;;;;;;41.67;12.82;;;;;;;2.60;89.60;104097.50;4955755;29;20027;-72
2022/01/13 02:01:47;;;;;;;27.13;11.52;;;;;;;2.63;89.73;104104.72;4956081;29;20031;-73
2022/01/13 02:04:13;;;;;;;34.20;11.93;;;;;;;2.68;89.72;104098.25;4955572;29;20023;-72
2022/01/13 02:06:40;;;;;;;29.27;11.50;;;;;;;2.73;89.25;104103.13;4955524;29;20079;-72
2022/01/13 02:09:08;;;;;;;28.33;11.10;;;;;;;2.75;88.93;104105.91;4955552;29;20039;-72
2022/01/13 02:11:46;;;;;;;26.30;12.15;;;;;;;2.77;88.87;104109.56;4955514;29;20028;-72
2022/01/13 02:17:08;;;;;;;32.17;11.82;;;;;;;2.81;88.39;104110.78;4955571;29;20362;-72
2022/01/13 02:19:36;;;;;;;30.35;12.07;;;;;;;2.78;88.27;104110.47;4955464;29;20063;-72
2022/01/13 02:22:02;;;;;;;24.40;10.90;;;;;;;2.80;88.47;104109.84;4955271;29;20039;-72
2022/01/13 02:24:28;;;;;;;32.75;10.85;;;;;;;2.76;88.08;104111.25;4955219;28;20032;-72
2022/01/13 02:26:55;;;;;;;34.88;10.07;;;;;;;2.73;87.90;104118.78;4955252;29;20031;-72
2022/01/13 02:29:21;;;;;;;34.88;10.52;;;;;;;2.72;88.08;104116.97;4955652;29;20035;-71
2022/01/13 02:31:47;;;;;;;33.63;10.32;;;;;;;2.66;87.65;104115.47;4955348;29;20388;-72
2022/01/13 02:34:12;;;;;;;29.20;10.63;;;;;;;2.60;88.34;104120.09;4955288;29;20038;-72
2022/01/13 02:36:40;;;;;;;58.42;10.18;;;;;;;2.53;88.62;104117.66;4955149;29;20031;-72
2022/01/13 02:39:06;;;;;;;70.78;11.13;;;;;;;2.42;88.50;104112.34;4954985;28;20118;-72
2022/01/13 02:41:32;;;;;;;28.77;10.70;;;;;;;2.38;89.22;104118.03;4955210;29;20126;-72
2022/01/13 02:43:58;;;;;;;19.63;10.32;;;;;;;2.37;89.16;104113.59;4955116;29;20027;-72
2022/01/13 02:49:05;;;;;;;64.13;10.32;;;;;;;2.30;89.81;104112.84;4955112;29;20039;-72
2022/01/13 02:51:37;;;;;;;45.13;9.90;;;;;;;2.24;89.73;104115.78;4954965;29;20042;-73
2022/01/13 02:54:04;;;;;;;63.50;10.35;;;;;;;2.16;89.99;104120.25;4955114;29;20381;-72
2022/01/13 02:56:29;;;;;;;51.33;10.70;;;;;;;2.10;90.66;104114.44;4954949;29;20027;-72
2022/01/13 02:58:56;;;;;;;72.18;10.43;;;;;;;2.04;90.95;104107.69;4954921;29;20472;-72
2022/01/13 03:01:21;;;;;;;50.20;10.02;;;;;;;1.99;91.65;104115.06;4955035;29;20113;-72
2022/01/13 03:03:47;;;;;;;27.98;9.77;;;;;;;2.02;91.25;104109.25;4955000;29;20023;-72
2022/01/13 03:06:24;;;;;;;37.75;10.05;;;;;;;2.00;91.86;104103.88;4954484;29;20058;-72
2022/01/13 03:08:53;;;;;;;36.58;10.23;;;;;;;2.02;91.10;104107.56;4954843;29;20102;-73
2022/01/13 03:11:22;;;;;;;67.40;11.65;;;;;;;2.00;91.44;104101.25;4954827;29;20063;-72
2022/01/13 03:13:48;;;;;;;26.85;10.43;;;;;;;2.12;91.65;104097.25;4954899;29;20027;-73
2022/01/13 03:16:14;;;;;;;37.40;9.32;;;;;;;2.15;91.02;104094.03;4954881;29;20027;-72
2022/01/13 03:18:40;;;;;;;42.92;10.25;;;;;;;2.17;90.80;104092.47;4954772;29;20031;-72
2022/01/13 03:21:07;;;;;;;28.95;10.05;;;;;;;2.19;91.06;104093.56;4937604;29;20041;-73
2022/01/13 03:23:34;;;;;;;28.10;9.50;;;;;;;2.24;91.09;104097.53;4954675;29;20031;-72
2022/01/13 03:26:05;;;;;;;44.03;9.90;;;;;;;2.33;90.78;104105.31;4954743;28;20030;-72
2022/01/13 03:28:38;;;;;;;69.07;10.82;;;;;;;2.28;90.59;104089.22;4954754;29;20425;-73
2022/01/13 03:31:07;;;;;;;39.13;10.25;;;;;;;2.30;90.61;104094.56;4954693;29;20039;-73
2022/01/13 03:33:34;;;;;;;42.90;9.70;;;;;;;2.36;90.74;104089.97;4954628;29;20465;-72
2022/01/13 03:36:00;;;;;;;32.28;9.88;;;;;;;2.45;90.18;104088.22;4954626;29;20062;-73
2022/01/13 03:38:26;;;;;;;46.40;10.00;;;;;;;2.49;89.84;104087.75;4957515;29;20118;-72
2022/01/13 03:40:52;;;;;;;47.38;9.70;;;;;;;2.46;89.63;104087.47;4958485;29;20023;-72
2022/01/13 03:43:18;;;;;;;41.78;9.88;;;;;;;2.38;89.99;104080.56;4958320;29;20495;-72
2022/01/13 03:45:45;;;;;;;51.75;9.73;;;;;;;2.33;90.39;104084.44;4958361;29;20435;-72
2022/01/13 03:48:13;;;;;;;43.58;9.48;;;;;;;2.34;90.15;104081.97;4958175;29;20400;-73
2022/01/13 03:50:39;;;;;;;45.00;10.90;;;;;;;2.34;90.48;104083.66;4958180;29;20066;-72
2022/01/13 03:53:26;;;;;;;47.58;10.27;;;;;;;2.37;90.63;104083.97;4958312;29;20384;-72
2022/01/13 03:56:31;;;;;;;39.65;10.27;;;;;;;2.41;90.19;104080.88;4940828;29;20398;-72
2022/01/13 03:59:14;;;;;;;30.58;10.15;;;;;;;2.42;90.37;104087.94;4880277;29;20158;-72
2022/01/13 04:01:58;;;;;;;35.10;10.15;;;;;;;2.42;90.11;104083.63;4880311;29;20535;-72
2022/01/13 04:04:23;;;;;;;76.93;12.70;;;;;;;2.36;90.40;104079.53;4880200;29;20037;-72
2022/01/13 04:06:49;;;;;;;34.08;11.10;;;;;;;2.34;90.59;104086.28;4879906;29;20049;-72
2022/01/13 04:09:23;;;;;;;49.50;12.45;;;;;;;2.32;90.95;104080.91;4879883;29;20430;-72
2022/01/13 04:11:52;;;;;;;52.55;13.00;;;;;;;2.17;91.28;104079.44;4880018;29;20470;-72
2022/01/13 04:14:28;;;;;;;60.70;11.25;;;;;;;2.14;91.28;104074.84;4879740;29;20049;-72
2022/01/13 04:16:53;;;;;;;27.13;11.23;;;;;;;2.14;91.07;104068.69;4879950;29;20408;-72
2022/01/13 04:19:18;;;;;;;40.38;12.50;;;;;;;2.16;90.68;104069.78;4879880;29;20093;-72
2022/01/13 04:21:44;;;;;;;26.23;11.55;;;;;;;2.21;91.13;104074.66;4879857;29;20112;-72
2022/01/13 04:24:11;;;;;;;39.45;11.77;;;;;;;2.19;90.86;104070.06;4879837;29;20033;-72
2022/01/13 04:26:39;;;;;;;34.40;12.35;;;;;;;2.21;90.95;104066.81;4879785;29;20037;-71
2022/01/13 04:31:48;;;;;;;36.25;12.63;;;;;;;2.28;90.70;104078.78;4879758;29;20045;-72
2022/01/13 04:34:14;;;;;;;33.75;13.25;;;;;;;2.27;91.15;104074.34;4879636;29;20068;-72
2022/01/13 04:36:40;;;;;;;52.20;13.82;;;;;;;2.29;91.31;104072.78;4948127;29;20078;-72
2022/01/13 04:39:07;;;;;;;35.28;13.13;;;;;;;2.34;91.22;104068.94;4957088;28;20035;-71
2022/01/13 04:41:38;;;;;;;43.00;13.45;;;;;;;2.37;91.02;104068.31;4957308;29;20036;-71
2022/01/13 04:44:24;;;;;;;33.08;12.57;;;;;;;2.32;91.40;104072.19;4957305;29;20042;-74
2022/01/13 04:46:52;;;;;;;55.92;14.00;;;;;;;2.18;91.48;104058.69;4957053;29;20070;-72
2022/01/13 04:49:19;;;;;;;43.10;14.40;;;;;;;2.20;91.77;104062.38;4955677;28;20508;-72
2022/01/13 04:51:46;;;;;;;62.28;13.82;;;;;;;2.21;91.60;104068.53;4957416;29;20027;-72
2022/01/13 04:54:12;;;;;;;90.32;15.30;;;;;;;2.14;91.46;104063.47;4956917;29;20058;-72
2022/01/13 04:59:14;;;;;;;68.13;13.98;;;;;;;2.05;91.25;104063.50;4957071;29;20130;-71
2022/01/13 05:01:41;;;;;;;77.25;13.60;;;;;;;1.96;92.25;104063.53;4956714;29;20530;-72
2022/01/13 05:04:07;;;;;;;56.72;12.10;;;;;;;1.92;91.82;104056.16;4956954;29;20113;-73
2022/01/13 05:06:32;;;;;;;52.58;12.68;;;;;;;1.91;92.20;104066.47;4956861;29;20119;-71
2022/01/13 05:08:58;;;;;;;57.25;13.48;;;;;;;1.93;91.96;104060.66;4956804;29;20122;-72
2022/01/13 05:11:24;;;;;;;39.22;14.23;;;;;;;1.94;92.22;104069.38;4956755;29;20102;-72
2022/01/13 05:13:50;;;;;;;57.45;14.20;;;;;;;1.97;92.12;104074.88;4956768;29;20110;-72
2022/01/13 05:16:22;;;;;;;61.13;16.33;;;;;;;1.94;91.86;104075.50;4956522;29;20524;-72
2022/01/13 05:21:44;;;;;;;62.45;15.02;;;;;;;1.98;91.80;104068.91;4956815;29;20054;-72
2022/01/13 05:24:09;;;;;;;51.47;14.73;;;;;;;2.04;92.33;104076.41;4956401;29;20028;-71
2022/01/13 05:26:35;;;;;;;49.25;14.98;;;;;;;2.09;92.12;104070.84;4956469;29;20118;-72
2022/01/13 05:29:00;;;;;;;36.33;13.05;;;;;;;2.21;92.26;104065.91;4939070;29;20074;-72
2022/01/13 05:31:31;;;;;;;61.63;15.95;;;;;;;2.28;91.77;104068.34;4956342;29;20428;-72
2022/01/13 05:33:56;;;;;;;57.92;13.85;;;;;;;2.32;91.24;104066.97;4956362;29;20161;-72
2022/01/13 05:36:22;;;;;;;56.38;14.57;;;;;;;2.34;90.82;104066.31;4956386;29;20441;-72
2022/01/13 05:38:48;;;;;;;66.47;15.15;;;;;;;2.36;90.79;104066.47;4956088;29;20027;-71
2022/01/13 05:41:13;;;;;;;93.28;15.38;;;;;;;2.34;90.52;104060.19;4956098;29;20027;-72
2022/01/13 05:43:38;;;;;;;56.22;14.95;;;;;;;2.32;91.57;104065.25;4956120;29;20035;-71
2022/01/13 05:46:04;;;;;;;62.72;15.07;;;;;;;2.32;91.12;104067.88;4956247;29;20035;-72
2022/01/13 05:48:31;;;;;;;47.28;15.32;;;;;;;2.32;91.15;104070.47;4956106;29;20064;-72
2022/01/13 05:50:57;;;;;;;54.58;15.07;;;;;;;2.32;90.86;104080.91;4956014;29;20035;-71
2022/01/13 05:53:23;;;;;;;50.80;14.35;;;;;;;2.30;91.02;104076.31;4955866;29;20067;-72
2022/01/13 05:55:48;;;;;;;58.42;14.80;;;;;;;2.28;91.05;104077.88;4955867;29;20117;-72
2022/01/13 05:58:13;;;;;;;103.22;15.05;;;;;;;2.24;90.60;104068.81;4955747;29;20027;-72
2022/01/13 06:00:39;;;;;;;93.47;15.80;;;;;;;2.20;90.94;104066.69;4955486;28;20031;-72
2022/01/13 06:03:05;;;;;;;52.22;15.57;;;;;;;2.14;91.72;104067.03;4955795;29;20031;-72
2022/01/13 06:05:31;;;;;;;74.22;18.02;;;;;;;2.17;91.61;104074.22;4955621;29;20031;-72
2022/01/13 06:07:57;;;;;;;55.45;15.40;;;;;;;2.22;91.54;104073.88;4938635;29;20043;-72
2022/01/13 06:10:23;;;;;;;57.22;13.35;;;;;;;2.30;91.67;104082.44;4955589;29;20496;-71
2022/01/13 06:12:51;;;;;;;54.25;14.95;;;;;;;2.32;91.25;104070.47;4955689;29;20031;-72
2022/01/13 06:15:19;;;;;;;52.53;15.85;;;;;;;2.33;91.22;104067.09;4955455;29;20035;-72
2022/01/13 06:17:46;;;;;;;58.78;14.90;;;;;;;2.33;91.28;104068.78;4955768;29;20031;-72
2022/01/13 06:20:13;;;;;;;49.13;15.80;;;;;;;2.39;91.34;104071.97;4955691;29;20105;-72
2022/01/13 06:22:40;;;;;;;53.40;14.45;;;;;;;2.44;91.32;104060.28;4955759;29;20023;-72
2022/01/13 06:25:07;;;;;;;61.38;15.80;;;;;;;2.44;91.05;104058.63;4955338;28;20027;-72
2022/01/13 06:27:33;;;;;;;64.93;15.32;;;;;;;2.44;90.96;104056.00;4955436;29;20037;-72
2022/01/13 06:29:59;;;;;;;57.50;16.20;;;;;;;2.47;91.20;104057.97;4955234;29;20062;-72
2022/01/13 06:32:25;;;;;;;40.95;15.63;;;;;;;2.52;91.11;104059.31;4955325;29;20059;-72
2022/01/13 06:34:51;;;;;;;63.17;15.60;;;;;;;2.55;90.68;104059.63;4955291;29;20429;-72
2022/01/13 06:37:17;;;;;;;94.50;17.35;;;;;;;2.46;90.70;104062.28;4955432;29;20049;-72
2022/01/13 06:39:52;;;;;;;79.93;15.23;;;;;;;2.46;90.88;104057.06;4955139;29;20031;-72
2022/01/13 06:42:20;;;;;;;45.33;15.15;;;;;;;2.48;91.20;104055.53;4955256;29;20097;-72
2022/01/13 06:44:46;;;;;;;95.53;16.70;;;;;;;2.48;90.84;104055.53;4955183;29;20059;-73
2022/01/13 06:47:12;;;;;;;107.15;15.70;;;;;;;2.42;90.60;104054.00;4955350;29;20115;-72
2022/01/13 06:49:39;;;;;;;52.72;14.48;;;;;;;2.41;91.16;104058.31;4955263;29;20038;-72
2022/01/13 06:52:06;;;;;;;62.40;15.77;;;;;;;2.40;91.11;104058.13;4955117;29;20047;-73
2022/01/13 06:54:31;;;;;;;86.60;15.40;;;;;;;2.40;91.01;104061.69;4954938;28;20059;-73
2022/01/13 06:56:58;;;;;;;56.92;15.95;;;;;;;2.46;91.31;104058.75;4955310;29;20062;-73
2022/01/13 06:59:24;;;;;;;50.80;14.50;;;;;;;2.48;91.24;104060.75;4955352;29;20082;-73
2022/01/13 07:01:50;;;;;;;72.15;14.70;;;;;;;2.50;90.91;104055.66;4955157;29;20024;-73
2022/01/13 07:04:16;;;;;;;46.65;15.50;;;;;;;2.55;91.08;104048.25;4955306;29;20024;-73
2022/01/13 07:06:43;;;;;;;73.68;15.85;;;;;;;2.57;90.27;104052.88;4954886;29;20571;-73
2022/01/13 07:09:13;;;;;;;71.82;14.55;;;;;;;2.56;90.80;104056.22;4954768;29;20031;-73
2022/01/13 07:11:39;;;;;;;60.30;14.25;;;;;;;2.53;90.78;104052.41;4955046;28;20389;-73
2022/01/13 07:14:05;;;;;;;76.13;14.65;;;;;;;2.54;90.59;104064.69;4958777;29;20110;-73
2022/01/13 07:16:30;;;;;;;56.13;13.63;;;;;;;2.55;90.66;104062.22;4959055;29;20107;-73
2022/01/13 07:18:56;;;;;;;57.70;13.93;;;;;;;2.54;90.18;104067.31;4958745;29;20436;-73
2022/01/13 07:21:25;;;;;;;58.65;13.32;;;;;;;2.54;90.35;104059.47;4958812;29;20027;-72
2022/01/13 07:23:50;;;;;;;60.75;14.00;;;;;;;2.58;90.59;104070.34;4958605;29;20106;-72
2022/01/13 07:26:16;;;;;;;60.13;13.93;;;;;;;2.56;90.71;104066.66;4941370;29;20439;-73
2022/01/13 07:28:41;;;;;;;51.75;13.80;;;;;;;2.55;90.36;104063.91;4958477;29;20038;-72
2022/01/13 07:31:07;;;;;;;56.67;13.57;;;;;;;2.54;90.52;104068.22;4958597;29;20050;-73
2022/01/13 07:33:32;;;;;;;55.55;12.98;;;;;;;2.55;90.75;104059.63;4958560;29;20063;-73
2022/01/13 07:35:58;;;;;;;60.13;13.05;;;;;;;2.52;90.61;104056.69;4958507;29;20060;-73
2022/01/13 07:38:23;;;;;;;46.85;12.30;;;;;;;2.54;90.77;104059.47;4958227;29;20023;-73
2022/01/13 07:40:49;;;;;;;50.55;13.65;;;;;;;2.54;90.84;104057.78;4958396;28;20023;-73
2022/01/13 07:43:22;;;;;;;41.10;13.15;;;;;;;2.48;91.22;104062.41;4958304;29;20034;-73
2022/01/13 07:45:49;;;;;;;51.00;12.55;;;;;;;2.48;91.35;104062.41;4958387;29;20035;-73
2022/01/13 07:48:15;;;;;;;56.63;13.85;;;;;;;2.44;91.09;104066.44;4958304;29;20031;-72
2022/01/13 07:50:40;;;;;;;58.75;13.80;;;;;;;2.45;91.21;104068.28;4958192;29;20385;-73
2022/01/13 07:53:11;;;;;;;52.92;13.75;;;;;;;2.54;91.51;104068.22;4958138;29;20035;-73
2022/01/13 07:55:36;;;;;;;48.25;13.60;;;;;;;2.59;91.26;104071.28;4958108;29;20477;-72
2022/01/13 07:58:02;;;;;;;60.05;15.13;;;;;;;2.60;91.39;104079.25;4940871;29;20030;-72
2022/01/13 08:00:28;;;;;;;77.45;14.75;;;;;;;2.59;90.66;104068.66;4940743;29;20030;-73
2022/01/13 08:02:53;;;;;;;52.75;13.23;;;;;;;2.56;91.18;104066.66;4957935;29;20035;-73
2022/01/13 08:05:19;;;;;;;47.08;13.98;;;;;;;2.54;91.30;104070.84;4958074;29;20102;-72
2022/01/13 08:07:44;;;;;;;64.45;13.32;;;;;;;2.53;91.51;104073.28;4957597;29;20051;-73
2022/01/13 08:10:10;;;;;;;52.65;13.88;;;;;;;2.50;91.70;104076.53;4957786;29;20023;-73
2022/01/13 08:12:37;;;;;;;78.88;16.00;;;;;;;2.42;91.79;104077.50;4957881;29;20195;-72
2022/01/13 08:15:04;;;;;;;48.10;13.88;;;;;;;2.39;91.79;104083.31;4957743;29;20027;-72
2022/01/13 08:20:14;;;;;;;44.88;14.07;;;;;;;2.39;92.24;104083.31;4957987;29;20510;-72
2022/01/13 08:22:40;;;;;;;76.82;14.05;;;;;;;2.37;92.23;104081.34;4957314;28;20027;-72
2022/01/13 08:25:06;;;;;;;61.55;14.02;;;;;;;2.40;92.66;104089.47;4957522;29;20090;-72
2022/01/13 08:27:32;;;;;;;49.03;13.95;;;;;;;2.45;92.75;104088.22;4940272;29;20469;-73
2022/01/13 08:29:57;;;;;;;100.10;14.43;;;;;;;2.47;92.26;104091.91;4957546;29;20070;-73
2022/01/13 08:32:24;;;;;;;84.05;13.02;;;;;;;2.48;92.03;104088.50;4957584;29;20020;-73
2022/01/13 08:34:49;;;;;;;42.92;13.43;;;;;;;2.49;92.60;104095.59;4957389;29;20035;-73
2022/01/13 08:37:16;;;;;;;45.13;12.27;;;;;;;2.53;92.50;104094.16;4957631;29;20027;-74
2022/01/13 08:39:44;;;;;;;44.33;12.32;;;;;;;2.59;92.27;104097.38;4957205;29;20034;-75
2022/01/13 08:42:13;;;;;;;31.25;12.55;;;;;;;2.65;92.22;104097.94;4957078;29;20444;-74
2022/01/13 08:44:39;;;;;;;48.97;11.95;;;;;;;2.71;92.21;104098.53;4957168;29;20023;-73
2022/01/13 08:47:05;;;;;;;49.55;13.80;;;;;;;2.73;91.52;104105.72;4957492;29;20058;-74
2022/01/13 08:49:31;;;;;;;56.65;12.32;;;;;;;2.75;91.52;104104.19;4957130;29;20481;-74
2022/01/13 08:51:58;;;;;;;51.28;12.93;;;;;;;2.78;91.60;104111.38;4957192;29;20035;-74
2022/01/13 08:54:23;;;;;;;41.03;12.88;;;;;;;2.82;91.75;104115.22;4957130;28;20028;-73
2022/01/13 08:56:49;;;;;;;51.55;11.23;;;;;;;2.84;91.75;104109.38;4956914;29;20534;-73
2022/01/13 08:59:15;;;;;;;53.03;12.50;;;;;;;2.87;91.39;104108.72;4957050;29;20028;-73
2022/01/13 09:01:43;;;;;;;39.65;12.18;;;;;;;2.88;91.59;104106.28;4956947;29;20408;-74
2022/01/13 09:04:08;;;;;;;30.33;11.60;;;;;;;2.89;91.79;104109.81;4957094;29;20034;-74
2022/01/13 09:06:34;;;;;;;69.57;14.05;;;;;;;2.85;91.37;104118.13;4956752;29;20039;-74
2022/01/13 09:08:59;;;;;;;43.00;12.65;;;;;;;2.84;91.77;104113.69;4956708;29;20031;-73
2022/01/13 09:11:28;;;;;;;49.35;12.93;;;;;;;2.80;91.67;104114.16;4957096;29;20110;-73
2022/01/13 09:13:57;;;;;;;58.30;13.80;;;;;;;2.75;92.01;104125.09;4956648;29;20031;-73
2022/01/13 09:16:24;;;;;;;109.35;15.38;;;;;;;2.72;92.25;104116.03;4956695;29;20086;-74
2022/01/13 09:21:23;;;;;;;56.58;13.65;;;;;;;2.76;92.38;104116.47;4956712;29;20028;-73
2022/01/13 09:23:49;;;;;;;50.72;13.90;;;;;;;2.76;92.68;104123.41;4956436;29;20461;-73
2022/01/13 09:26:14;;;;;;;52.47;13.27;;;;;;;2.83;92.26;104122.31;4956409;29;20038;-73
2022/01/13 09:28:40;;;;;;;48.85;13.07;;;;;;;2.86;92.66;104130.41;4956503;29;20031;-73
2022/01/13 09:31:07;;;;;;;64.18;12.82;;;;;;;2.87;91.96;104124.41;4956742;29;20477;-73
2022/01/13 09:33:33;;;;;;;53.38;14.00;;;;;;;2.84;92.17;104118.91;4956377;29;20551;-73
2022/01/13 09:36:01;;;;;;;62.13;15.38;;;;;;;2.73;92.78;104124.00;4955695;28;20027;-76
2022/01/13 09:38:26;;;;;;;71.60;14.40;;;;;;;2.67;92.84;104127.75;4956419;29;20457;-76
2022/01/13 09:40:52;;;;;;;104.75;15.95;;;;;;;2.61;93.22;104122.88;4956187;29;20113;-74
2022/01/13 09:43:26;;;;;;;68.43;14.30;;;;;;;2.56;93.74;104123.19;4956192;29;20047;-74
2022/01/13 09:45:54;;;;;;;96.82;14.63;;;;;;;2.56;93.84;104121.47;4956184;29;20034;-74
2022/01/13 09:48:21;;;;;;;64.07;14.45;;;;;;;2.54;94.13;104115.22;4956093;29;20042;-74
2022/01/13 09:50:48;;;;;;;54.63;14.20;;;;;;;2.62;94.02;104123.78;4956140;29;20027;-74
2022/01/13 09:53:17;;;;;;;49.95;13.25;;;;;;;2.66;93.78;104126.84;4955959;29;20031;-73
2022/01/13 09:55:44;;;;;;;49.80;13.55;;;;;;;2.71;93.72;104125.56;4955942;28;20028;-73
2022/01/13 09:58:10;;;;;;;75.30;14.85;;;;;;;2.73;93.97;104123.09;4955913;29;20035;-74
2022/01/13 10:00:40;;;;;;;57.63;13.45;;;;;;;2.75;93.97;104121.56;4956172;29;20158;-75
2022/01/13 10:03:27;;;;;;;60.08;13.98;;;;;;;2.78;93.75;104126.13;4955934;29;20465;-73
2022/01/13 10:06:15;;;;;;;73.85;13.23;;;;;;;2.80;93.69;104122.91;4955567;29;20058;-73
2022/01/13 10:08:50;;;;;;;66.82;12.43;;;;;;;2.78;93.89;104121.84;4953579;29;20027;-74
2022/01/13 10:11:37;;;;;;;68.65;13.90;;;;;;;2.78;93.56;104128.75;4955780;28;20469;-74
2022/01/13 10:16:23;;;;;;;48.28;12.77;;;;;;;2.75;93.42;104124.19;4955711;29;20130;-75
2022/01/13 10:17:07;;;;;;;55.97;12.82;;;;;;;2.76;93.64;104123.41;4955117;29;20126;-75
2022/01/13 10:19:33;;;;;;;38.88;12.18;;;;;;;2.80;93.58;104125.53;4955608;29;20495;-74
2022/01/13 10:22:07;;;;;;;52.75;13.27;;;;;;;2.84;93.18;104130.28;4955431;29;20121;-73
2022/01/13 10:24:39;;;;;;;63.42;13.15;;;;;;;2.85;93.13;104128.56;4956057;28;20055;-73
2022/01/13 10:27:11;;;;;;;72.73;13.07;;;;;;;2.87;93.39;104127.97;4970225;28;20055;-73
2022/01/13 10:29:40;;;;;;;54.28;13.43;;;;;;;2.90;93.23;104116.88;4955414;29;20035;-73
2022/01/13 10:32:07;;;;;;;66.50;13.52;;;;;;;2.86;93.36;104120.88;4955290;29;20046;-73
2022/01/13 10:34:36;;;;;;;104.43;14.20;;;;;;;2.80;93.36;104125.53;4969059;28;20391;-73
2022/01/13 10:37:33;;;;;;;51.75;13.57;;;;;;;2.82;93.62;104123.06;4971753;28;20398;-73
2022/01/13 10:40:10;;;;;;;47.17;12.40;;;;;;;2.84;93.89;104126.75;4877168;29;20044;-72
2022/01/13 10:45:06;;;;;;;55.47;13.43;;;;;;;2.92;93.33;104126.69;4877606;29;20072;-73
2022/01/13 10:47:32;;;;;;;46.63;12.95;;;;;;;2.96;92.95;104125.28;4877334;29;20534;-73
2022/01/13 10:50:02;;;;;;;37.13;11.93;;;;;;;2.99;92.74;104117.72;4877425;29;20124;-73
2022/01/13 10:52:28;;;;;;;55.17;13.45;;;;;;;3.00;92.62;104116.97;4877524;29;20410;-72
2022/01/13 10:55:21;;;;;;;68.07;13.80;;;;;;;2.98;93.16;104114.19;4877360;29;20033;-73
2022/01/13 10:57:48;;;;;;;44.20;13.20;;;;;;;3.01;92.65;104114.50;4873481;29;20056;-72
2022/01/13 11:00:16;;;;;;;57.95;14.15;;;;;;;3.04;93.11;104107.69;4877266;29;20068;-72
2022/01/13 11:02:43;;;;;;;50.00;13.98;;;;;;;3.05;92.23;104101.72;4877394;29;20045;-74
2022/01/13 11:05:10;;;;;;;36.53;12.43;;;;;;;3.06;92.81;104098.34;4877172;29;20479;-73
2022/01/13 11:07:37;;;;;;;40.05;12.68;;;;;;;3.12;93.10;104099.81;4877127;29;20060;-72
2022/01/13 11:10:06;;;;;;;45.88;14.70;;;;;;;3.14;93.17;104095.66;4877151;29;20105;-72
2022/01/13 11:12:37;;;;;;;49.28;13.10;;;;;;;3.15;92.36;104094.88;4877249;29;20041;-73
2022/01/13 11:15:08;;;;;;;70.35;13.85;;;;;;;3.07;92.53;104092.31;4899727;29;20174;-72
2022/01/13 11:17:38;;;;;;;45.80;12.80;;;;;;;3.09;93.25;104078.66;4954773;29;20527;-73
2022/01/13 11:20:09;;;;;;;48.70;13.93;;;;;;;3.06;92.84;104077.44;4954725;29;20480;-72
2022/01/13 11:22:38;;;;;;;45.92;11.98;;;;;;;3.06;93.11;104080.03;4954833;29;20107;-73
2022/01/13 11:25:06;;;;;;;42.45;12.45;;;;;;;3.10;92.76;104077.84;4954688;28;20090;-72
2022/01/13 11:27:33;;;;;;;42.08;12.43;;;;;;;3.15;92.77;104073.06;4955243;29;20035;-72
2022/01/13 11:29:59;;;;;;;50.05;13.10;;;;;;;3.18;92.40;104076.88;4954795;29;20136;-73
2022/01/13 11:32:25;;;;;;;60.83;14.63;;;;;;;3.15;91.93;104071.34;4954893;29;20027;-73
2022/01/13 11:34:53;;;;;;;60.83;13.00;;;;;;;3.11;92.99;104071.84;4954630;29;20027;-74
2022/01/13 11:37:19;;;;;;;40.63;12.63;;;;;;;3.14;92.88;104068.63;4954705;29;20070;-74
2022/01/13 11:39:45;;;;;;;41.78;13.48;;;;;;;3.16;93.29;104074.88;4954430;29;20501;-72
2022/01/13 11:42:14;;;;;;;58.05;12.63;;;;;;;3.17;92.78;104071.50;4954762;29;20027;-73
2022/01/13 11:44:41;;;;;;;35.33;12.50;;;;;;;3.21;92.53;104074.56;4955102;29;20035;-72
2022/01/13 11:47:19;;;;;;;49.00;13.10;;;;;;;3.23;92.86;104072.06;4954380;29;20031;-72
2022/01/13 11:52:14;;;;;;;35.63;12.75;;;;;;;3.31;92.55;104071.09;4954797;29;20046;-71
2022/01/13 11:54:41;;;;;;;63.72;14.88;;;;;;;3.27;92.88;104074.19;4954382;29;20032;-73
2022/01/13 11:57:23;;;;;;;59.40;13.02;;;;;;;3.30;91.93;104074.50;4954567;28;20042;-73